aviador You're here:

ZYTL Decoded Metar

DALIAN in CHINA
Report Time2017-06-25 13:30:00
UTC Time2017-06-25 13:50:23
Flight Rules vfr VFR
Wind280° at 8 kt
W.Decomp.*RWY 28: 7.9 kt HW 1.1 kt RCW
W.Rank280° ranks 5
Current wind is above 280° avg. (6.4)
Visibility9999 m
Phenomena:N/A
Clouds:N/A
Expected CloudBase > 2,000 ft AGL from Temp-Dew spread
CeilingNone
Temp22°C (ISA +8)
Dew Point17°C (73% RH)
AAT21.5°C
QNH1005 hPa
Density Alt1,736 ft
Elevation318 ft
Report Wrong Elevation
Raw Report
ZYTL 251330Z 28004MPS CAVOK 22/17 Q1005 NOSIG=

Extra information for ZYTL:More info

Metar Taf Metar & Taf Last 4 Metars F.Rules Stats Wind Profile Meteogram Temp Stats Airport Information Weather charts Add Link Nearby VenuesMetar ALERT Operation Metar Decoded Social comments